Fleming, Ohio
Current Conditions -  °F | °C
As of 6:24 AM on Saturday 01 Nov 2014 (Local Time) from KPKB Reporting Station
Overcast Overcast  
Wind Chill: 38°   Ceiling: 1000
Heat Index: 42°   Visibility: 9mi
Dew Point: 39°   Wind: 7mph
Humidity: 89%   Direction: 350°N
Pressure: 29.96"   Gusts: NA
Location:  39.39°N, 81.61°W
Report Text: KPKB 011024Z AUTO 35006KT 9SM BKN010 OVC013 06/04 A2996 RMK AO2 CIG 006V011 T00560039
Loading
Personal Weather Stations






























Interactive Weather Map
Tropical Storm Tracking
New forecast layout! Learn more

10-Day Weather Forecast

Advertisements
Track Severe Weather on mobile